This is the latest recevied weather packets stored in our database for station/object SQ5OUZ-8. If no packets are shown the sender has not sent any weather packets the latest 10 day(s).
| Time | Temp. | Humidity | Pressure | Rain* | Wind** | Luminosity | Snow |
|---|---|---|---|---|---|---|---|
| 1777455772 | 10° C | 31% | 1028 hPa | - | - | - | - |
| 1777454580 | 12.22° C | 28% | 1028 hPa | - | - | - | - |
| 1777453515 | 11.11° C | 32% | 1028 hPa | - | - | - | - |
| 1777452489 | 11.11° C | 32% | 1028 hPa | - | - | - | - |
| 1777451315 | 12.22° C | 31% | 1028 hPa | - | - | - | - |
| 1777450116 | 8.89° C | 36% | 1028 hPa | - | - | - | - |
| 1777449064 | 8.33° C | 38% | 1028 hPa | - | - | - | - |
| 1777447944 | 10° C | 34% | 1028 hPa | - | - | - | - |
| 1777446935 | 12.22° C | 34% | 1028 hPa | - | - | - | - |
| 1777445789 | 10.56° C | 38% | 1028 hPa | - | - | - | - |
| 1777444649 | 9.44° C | 42% | 1028 hPa | - | - | - | - |
| 1777443613 | 8.33° C | 45% | 1028 hPa | - | - | - | - |
| 1777442546 | 8.89° C | 47% | 1028 hPa | - | - | - | - |
| 1777441547 | 2.78° C | 66% | 1028 hPa | - | - | - | - |
| 1777440522 | 2.22° C | 66% | 1028 hPa | - | - | - | - |
| 1777439340 | 2.22° C | 66% | 1028 hPa | - | - | - | - |
| 1777438330 | 1.67° C | 66% | 1028 hPa | - | - | - | - |
| 1777437263 | 1.11° C | 64% | 1028 hPa | - | - | - | - |
| 1777436283 | 1.11° C | 63% | 1028 hPa | - | - | - | - |
| 1777435285 | 1.11° C | 62% | 1028 hPa | - | - | - | - |
| 1777434157 | 1.11° C | 62% | 1027 hPa | - | - | - | - |
| 1777432995 | 1.11° C | 61% | 1027 hPa | - | - | - | - |
| 1777431949 | 1.67° C | 58% | 1027 hPa | - | - | - | - |
| 1777430937 | 1.67° C | 57% | 1027 hPa | - | - | - | - |
| 1777429931 | 1.67° C | 56% | 1027 hPa | - | - | - | - |
* Rain since midnight (hover to see other rain measurements)
** Current wind speed in m/s (hover to see current wind gust speed)